createdAt,value
2018-05-18T00:00:50.218Z,102236.12
2018-05-18T00:03:52.173Z,102233.78
2018-05-18T00:06:54.244Z,102234.06
2018-05-18T00:09:56.446Z,102231.05
2018-05-18T00:12:58.590Z,102232.53
2018-05-18T00:16:00.651Z,102234.00
2018-05-18T00:19:03.575Z,102236.74
2018-05-18T00:22:05.650Z,102235.65
2018-05-18T00:25:07.832Z,102236.40
2018-05-18T00:28:09.961Z,102232.76
2018-05-18T00:31:12.040Z,102229.27
2018-05-18T00:34:14.111Z,102225.03
2018-05-18T00:37:16.289Z,102227.28
2018-05-18T00:40:18.360Z,102226.43
2018-05-18T00:43:20.320Z,102230.12
2018-05-18T00:46:22.462Z,102227.24
2018-05-18T00:49:24.558Z,102230.51
2018-05-18T00:52:27.136Z,102228.33
2018-05-18T00:55:38.996Z,102229.33
2018-05-18T00:58:41.109Z,102229.67
2018-05-18T01:01:43.099Z,102232.15
2018-05-18T01:04:45.242Z,102231.20
2018-05-18T01:07:47.309Z,102227.12
2018-05-18T01:10:49.384Z,102226.67
2018-05-18T01:13:51.591Z,102226.69
2018-05-18T01:16:53.750Z,102228.69
2018-05-18T01:19:55.909Z,102232.54
2018-05-18T01:22:58.056Z,102231.31
2018-05-18T01:26:00.125Z,102232.12
2018-05-18T01:29:02.196Z,102239.40
2018-05-18T01:32:04.274Z,102242.81
2018-05-18T01:35:06.665Z,102244.20
2018-05-18T01:38:08.829Z,102245.73
2018-05-18T01:41:10.890Z,102242.20
2018-05-18T01:44:13.044Z,102239.24
2018-05-18T01:47:15.103Z,102237.92
2018-05-18T01:50:17.190Z,102235.89
2018-05-18T01:53:19.368Z,102236.49
2018-05-18T01:56:21.376Z,102236.98
2018-05-18T01:59:23.468Z,102233.46
2018-05-18T02:02:25.445Z,102238.51
2018-05-18T02:05:27.581Z,102242.19
2018-05-18T02:08:29.675Z,102248.30
2018-05-18T02:11:31.726Z,102251.88
2018-05-18T02:14:33.775Z,102250.06
2018-05-18T02:17:36.436Z,102248.13
2018-05-18T02:20:38.528Z,102250.78
2018-05-18T02:23:40.531Z,102247.30
2018-05-18T02:26:42.498Z,102248.49
2018-05-18T02:29:44.556Z,102251.31
2018-05-18T02:32:46.624Z,102253.65
2018-05-18T02:35:48.677Z,102257.02
2018-05-18T02:38:50.802Z,102258.36
2018-05-18T02:41:52.827Z,102256.42
2018-05-18T02:44:54.945Z,102251.42
2018-05-18T02:47:57.032Z,102254.82
2018-05-18T02:50:59.136Z,102253.75
2018-05-18T02:54:01.204Z,102252.80
2018-05-18T02:57:03.319Z,102243.64
2018-05-18T03:00:06.423Z,102249.73
2018-05-18T03:03:08.451Z,102251.08
2018-05-18T03:06:10.515Z,102250.25
2018-05-18T03:09:12.588Z,102247.51
2018-05-18T03:12:14.791Z,102251.10
2018-05-18T03:15:16.729Z,102250.52
2018-05-18T03:18:18.803Z,102250.89
2018-05-18T03:21:20.903Z,102253.49
2018-05-18T03:24:22.947Z,102256.39
2018-05-18T03:27:25.032Z,102253.24
2018-05-18T03:30:28.323Z,102254.37
2018-05-18T03:33:30.397Z,102256.72
2018-05-18T03:36:32.465Z,102257.11
2018-05-18T03:39:34.639Z,102256.95
2018-05-18T03:42:36.685Z,102262.73
2018-05-18T03:45:38.988Z,102267.32
2018-05-18T03:48:42.043Z,102269.63
2018-05-18T03:51:44.111Z,102273.75
2018-05-18T03:54:46.067Z,102274.75
2018-05-18T03:57:48.197Z,102277.35
2018-05-18T04:00:50.319Z,102275.74
2018-05-18T04:06:05.307Z,102278.28
2018-05-18T04:09:07.396Z,102287.22
2018-05-18T04:12:09.481Z,102287.57
2018-05-18T04:15:11.520Z,102289.03
2018-05-18T04:18:13.632Z,102290.38
2018-05-18T04:21:15.787Z,102292.61
2018-05-18T04:24:17.876Z,102299.66
2018-05-18T04:27:19.895Z,102302.34
2018-05-18T04:30:23.254Z,102298.40
2018-05-18T04:33:25.230Z,102291.30
2018-05-18T04:36:27.892Z,102292.21
2018-05-18T04:39:30.007Z,102288.73
2018-05-18T04:42:32.126Z,102293.28
2018-05-18T04:45:34.143Z,102295.00
2018-05-18T04:48:36.135Z,102293.70
2018-05-18T04:51:38.218Z,102293.69
2018-05-18T04:54:40.248Z,102293.05
2018-05-18T04:57:42.568Z,102298.86
2018-05-18T05:00:44.603Z,102304.54
2018-05-18T05:03:46.703Z,102298.35
2018-05-18T05:06:48.944Z,102300.75
2018-05-18T05:09:51.953Z,102303.68
2018-05-18T05:12:53.999Z,102299.20
2018-05-18T05:15:56.067Z,102303.12
2018-05-18T05:18:58.163Z,102299.14
2018-05-18T05:22:00.300Z,102301.17
2018-05-18T05:25:02.433Z,102306.90
2018-05-18T05:28:04.331Z,102309.94
2018-05-18T05:31:06.604Z,102308.99
2018-05-18T05:34:08.712Z,102306.35
2018-05-18T05:37:10.707Z,102307.99
2018-05-18T05:40:12.652Z,102311.27
2018-05-18T05:43:15.688Z,102315.37
2018-05-18T05:46:17.777Z,102311.26
2018-05-18T05:49:20.105Z,102311.28
2018-05-18T05:52:23.348Z,102313.83
2018-05-18T05:55:25.457Z,102319.15
2018-05-18T05:58:27.524Z,102320.32
2018-05-18T06:01:29.564Z,102324.03
2018-05-18T06:04:31.628Z,102323.74
2018-05-18T06:07:33.696Z,102324.38
2018-05-18T06:10:35.816Z,102326.75
2018-05-18T06:13:37.972Z,102325.66
2018-05-18T06:16:40.024Z,102325.02
2018-05-18T06:19:42.189Z,102324.18
2018-05-18T06:22:44.205Z,102326.35
2018-05-18T06:25:46.383Z,102328.73
2018-05-18T06:28:48.437Z,102324.13
2018-05-18T06:31:50.770Z,102330.32
2018-05-18T06:34:54.147Z,102329.14
2018-05-18T06:37:56.235Z,102333.04
2018-05-18T06:40:58.281Z,102334.27
2018-05-18T06:44:00.367Z,102337.70
2018-05-18T06:47:02.538Z,102333.64
2018-05-18T06:50:04.614Z,102339.43
2018-05-18T06:53:06.663Z,102336.82
2018-05-18T06:56:08.641Z,102335.12
2018-05-18T06:59:10.680Z,102339.23
2018-05-18T07:02:12.752Z,102335.91
2018-05-18T07:05:14.845Z,102338.81
2018-05-18T07:08:16.920Z,102329.98
2018-05-18T07:11:18.959Z,102328.04
2018-05-18T07:14:20.960Z,102327.49
2018-05-18T07:17:23.957Z,102326.83
2018-05-18T07:20:27.073Z,102327.01
2018-05-18T07:23:29.088Z,102329.95
2018-05-18T07:26:31.155Z,102329.95
2018-05-18T07:29:33.205Z,102331.40
2018-05-18T07:32:35.215Z,102336.03
2018-05-18T07:35:42.832Z,102333.65
2018-05-18T07:38:44.959Z,102330.98
2018-05-18T07:41:46.915Z,102331.67
2018-05-18T07:44:49.008Z,102330.89
2018-05-18T07:47:51.105Z,102334.08
2018-05-18T07:50:53.163Z,102327.10
2018-05-18T07:53:55.342Z,102323.64
2018-05-18T07:56:57.329Z,102327.08
2018-05-18T07:59:59.579Z,102327.96
2018-05-18T08:03:01.880Z,102325.87
2018-05-18T08:06:04.083Z,102326.54
2018-05-18T08:09:07.387Z,102318.75
2018-05-18T08:12:09.429Z,102322.28
2018-05-18T08:15:11.489Z,102320.67
2018-05-18T08:18:13.505Z,102319.61
2018-05-18T08:21:15.688Z,102323.55
2018-05-18T08:24:17.736Z,102316.68
2018-05-18T08:27:22.952Z,102316.35
2018-05-18T08:30:39.561Z,102318.06
2018-05-18T08:33:41.621Z,102315.78
2018-05-18T08:36:43.723Z,102318.93
2018-05-18T08:39:45.668Z,102313.00
2018-05-18T08:42:47.763Z,102311.98
2018-05-18T08:45:49.936Z,102314.68
2018-05-18T08:48:53.969Z,102319.36
2018-05-18T08:52:00.539Z,102315.53
2018-05-18T08:55:02.632Z,102318.22
2018-05-18T08:58:04.627Z,102319.14
2018-05-18T09:01:06.599Z,102314.48
2018-05-18T09:04:08.518Z,102311.37
2018-05-18T09:07:10.555Z,102312.22
2018-05-18T09:10:12.541Z,102311.59
2018-05-18T09:13:14.603Z,102308.16
2018-05-18T09:16:16.583Z,102311.07
2018-05-18T09:19:18.602Z,102315.39
2018-05-18T09:22:21.833Z,102315.39
2018-05-18T09:25:23.892Z,102308.84
2018-05-18T09:28:25.947Z,102308.60
2018-05-18T09:31:27.891Z,102316.49
2018-05-18T09:34:30.020Z,102310.27
2018-05-18T09:37:32.073Z,102303.58
2018-05-18T09:40:34.117Z,102306.89
2018-05-18T09:43:36.135Z,102308.25
2018-05-18T09:46:38.195Z,102300.18
2018-05-18T09:49:40.350Z,102294.26
2018-05-18T09:52:42.292Z,102299.58
2018-05-18T09:55:44.410Z,102296.71
2018-05-18T09:58:46.426Z,102299.96
2018-05-18T10:01:48.598Z,102301.82
2018-05-18T10:04:50.503Z,102302.25
2018-05-18T10:07:52.499Z,102303.90
2018-05-18T10:10:54.536Z,102304.00
2018-05-18T10:13:56.570Z,102305.64
2018-05-18T10:16:58.492Z,102303.06
2018-05-18T10:20:00.517Z,102296.82
2018-05-18T10:23:02.631Z,102298.70
2018-05-18T10:26:04.751Z,102295.19
2018-05-18T10:29:06.880Z,102292.31
2018-05-18T10:32:08.994Z,102291.02
2018-05-18T10:35:12.188Z,102284.94
2018-05-18T10:38:14.255Z,102280.08
2018-05-18T10:41:16.303Z,102285.92
2018-05-18T10:44:18.433Z,102286.29
2018-05-18T10:47:26.095Z,102277.16
2018-05-18T10:50:28.468Z,102273.44
2018-05-18T10:53:30.735Z,102273.36
2018-05-18T10:56:32.787Z,102273.09
2018-05-18T10:59:34.900Z,102269.95
2018-05-18T11:02:36.950Z,102266.75
2018-05-18T11:05:38.884Z,102261.10
2018-05-18T11:08:41.719Z,102258.60
2018-05-18T11:11:43.768Z,102256.26
2018-05-18T11:14:45.944Z,102245.15
2018-05-18T11:17:47.908Z,102240.70
2018-05-18T11:20:49.950Z,102243.44
2018-05-18T11:23:51.942Z,102234.77
2018-05-18T11:26:54.020Z,102239.60
2018-05-18T11:29:56.054Z,102244.09
2018-05-18T11:32:58.030Z,102241.69
2018-05-18T11:35:59.992Z,102238.19
2018-05-18T11:39:02.150Z,102237.10
2018-05-18T11:42:04.167Z,102227.16
2018-05-18T11:45:06.211Z,102225.39
2018-05-18T11:48:08.278Z,102222.51
2018-05-18T11:51:10.237Z,102222.46
2018-05-18T11:54:12.954Z,102217.36
2018-05-18T11:57:14.898Z,102217.91
2018-05-18T12:00:16.951Z,102212.20
2018-05-18T12:03:19.045Z,102212.74
2018-05-18T12:06:21.112Z,102208.71
2018-05-18T12:09:25.147Z,102213.02
2018-05-18T12:12:27.081Z,102208.47
2018-05-18T12:15:31.848Z,102209.22
2018-05-18T12:18:34.004Z,102207.97
2018-05-18T12:21:36.378Z,102210.97
2018-05-18T12:24:38.763Z,102202.66
2018-05-18T12:27:42.677Z,102202.97
2018-05-18T12:30:45.439Z,102198.65
2018-05-18T12:33:47.892Z,102194.95
2018-05-18T12:36:50.501Z,102202.05
2018-05-18T12:39:52.805Z,102198.09
2018-05-18T12:42:54.993Z,102191.87
2018-05-18T12:45:57.454Z,102189.74
2018-05-18T12:48:59.894Z,102189.41
2018-05-18T12:52:01.951Z,102186.36
2018-05-18T12:55:04.564Z,102183.88
2018-05-18T12:58:08.083Z,102173.86
2018-05-18T13:01:10.633Z,102173.60
2018-05-18T13:04:13.068Z,102168.75
2018-05-18T13:07:15.086Z,102171.98
2018-05-18T13:10:17.662Z,102169.67
2018-05-18T13:13:19.650Z,102169.65
2018-05-18T13:16:23.148Z,102170.45
2018-05-18T13:19:25.703Z,102175.11
2018-05-18T13:22:27.771Z,102161.48
2018-05-18T13:25:30.179Z,102157.36
2018-05-18T13:28:32.212Z,102157.63
2018-05-18T13:31:34.801Z,102156.40
2018-05-18T13:34:37.317Z,102162.77
2018-05-18T13:37:39.861Z,102161.72
2018-05-18T13:40:43.763Z,102162.00
2018-05-18T13:43:45.844Z,102155.73
2018-05-18T13:46:48.344Z,102152.32
2018-05-18T13:49:50.821Z,102154.89
2018-05-18T13:52:52.979Z,102158.58
2018-05-18T13:55:55.375Z,102149.78
2018-05-18T13:58:57.434Z,102148.08
2018-05-18T14:01:59.987Z,102151.57
2018-05-18T14:05:02.495Z,102136.25
2018-05-18T14:08:05.000Z,102143.68
2018-05-18T14:11:07.136Z,102136.77
2018-05-18T14:14:09.106Z,102138.13
2018-05-18T14:20:14.152Z,102135.24
2018-05-18T14:23:16.516Z,102133.27
2018-05-18T14:26:18.617Z,102128.88
2018-05-18T14:29:26.174Z,102129.64
2018-05-18T14:32:28.736Z,102132.17
2018-05-18T14:35:31.233Z,102130.81
2018-05-18T14:38:33.642Z,102125.11
2018-05-18T14:41:35.700Z,102114.79
2018-05-18T14:44:38.215Z,102114.21
2018-05-18T14:47:40.267Z,102116.24
2018-05-18T14:50:42.640Z,102116.75
2018-05-18T14:53:44.771Z,102113.41
2018-05-18T14:56:47.385Z,102115.11
2018-05-18T14:59:49.766Z,102117.07
2018-05-18T15:02:51.862Z,102108.53
2018-05-18T15:05:54.421Z,102107.62
2018-05-18T15:08:56.871Z,102108.33
2018-05-18T15:11:59.459Z,102106.87
2018-05-18T15:15:01.864Z,102101.77
2018-05-18T15:18:03.913Z,102104.37
2018-05-18T15:21:06.398Z,102096.99
2018-05-18T15:24:09.036Z,102101.92
2018-05-18T15:27:12.459Z,102101.99
2018-05-18T15:30:19.679Z,102096.95
2018-05-18T15:33:22.061Z,102097.71
2018-05-18T15:36:24.537Z,102096.22
2018-05-18T15:39:27.020Z,102094.97
2018-05-18T15:42:29.079Z,102091.46
2018-05-18T15:45:31.149Z,102087.02
2018-05-18T15:48:34.775Z,102085.64
2018-05-18T15:51:37.200Z,102091.92
2018-05-18T15:54:39.783Z,102092.88
2018-05-18T15:57:43.322Z,102087.33
2018-05-18T16:00:47.303Z,102088.11
2018-05-18T16:03:50.593Z,102080.74
2018-05-18T16:06:54.248Z,102083.92
2018-05-18T16:09:56.218Z,102082.23
2018-05-18T16:12:58.290Z,102084.83
2018-05-18T16:16:00.828Z,102087.09
2018-05-18T16:19:03.326Z,102081.95
2018-05-18T16:22:05.880Z,102080.77
2018-05-18T16:25:08.282Z,102077.57
2018-05-18T16:28:10.429Z,102080.29
2018-05-18T16:31:13.465Z,102075.20
2018-05-18T16:34:16.015Z,102073.40
2018-05-18T16:37:18.397Z,102075.19
2018-05-18T16:40:20.444Z,102067.13
2018-05-18T16:43:24.047Z,102071.50
2018-05-18T16:46:26.420Z,102070.17
2018-05-18T16:49:28.502Z,102072.98
2018-05-18T16:52:30.583Z,102078.68
2018-05-18T16:55:33.245Z,102074.52
2018-05-18T16:58:35.629Z,102084.40
2018-05-18T17:01:38.113Z,102089.68
2018-05-18T17:04:40.558Z,102087.95
2018-05-18T17:07:43.698Z,102090.81
2018-05-18T17:10:46.192Z,102094.48
2018-05-18T17:13:48.599Z,102098.05
2018-05-18T17:16:50.740Z,102098.62
2018-05-18T17:19:52.747Z,102095.63
2018-05-18T17:22:54.718Z,102097.28
2018-05-18T17:25:58.348Z,102099.73
2018-05-18T17:29:00.698Z,102098.82
2018-05-18T17:32:02.763Z,102101.74
2018-05-18T17:35:05.344Z,102110.27
2018-05-18T17:38:07.935Z,102114.09
2018-05-18T17:41:10.418Z,102118.02
2018-05-18T17:44:13.854Z,102116.44
2018-05-18T17:47:15.888Z,102115.64
2018-05-18T17:50:18.463Z,102113.88
2018-05-18T17:53:20.879Z,102117.93
2018-05-18T17:56:23.036Z,102119.66
2018-05-18T17:59:25.179Z,102116.27
2018-05-18T18:02:28.413Z,102124.57
2018-05-18T18:05:30.485Z,102118.25
2018-05-18T18:08:32.491Z,102123.94
2018-05-18T18:11:34.609Z,102122.89
2018-05-18T18:14:36.676Z,102122.34
2018-05-18T18:17:38.840Z,102124.58
2018-05-18T18:20:40.902Z,102122.20
2018-05-18T18:23:42.938Z,102127.14
2018-05-18T18:26:44.927Z,102128.32
2018-05-18T18:29:47.063Z,102129.73
2018-05-18T18:32:49.099Z,102128.55
2018-05-18T18:35:51.284Z,102132.22
2018-05-18T18:38:53.327Z,102134.62
2018-05-18T18:41:55.315Z,102135.00
2018-05-18T18:44:57.570Z,102142.45
2018-05-18T18:47:59.612Z,102151.06
2018-05-18T18:51:01.796Z,102153.88
2018-05-18T18:54:03.872Z,102158.04
2018-05-18T18:57:06.117Z,102157.49
2018-05-18T19:00:08.214Z,102167.59
2018-05-18T19:03:10.402Z,102172.65
2018-05-18T19:06:12.632Z,102175.23
2018-05-18T19:09:14.746Z,102179.43
2018-05-18T19:12:16.831Z,102181.99
2018-05-18T19:15:18.976Z,102186.79
2018-05-18T19:18:21.039Z,102190.20
2018-05-18T19:21:23.033Z,102198.01
2018-05-18T19:24:26.052Z,102192.87
2018-05-18T19:27:28.158Z,102198.35
2018-05-18T19:30:30.271Z,102203.57
2018-05-18T19:33:32.366Z,102202.66
2018-05-18T19:36:34.525Z,102202.77
2018-05-18T19:39:36.462Z,102203.45
2018-05-18T19:42:39.496Z,102210.70
2018-05-18T19:45:41.575Z,102211.50
2018-05-18T19:48:43.603Z,102214.69
2018-05-18T19:51:45.723Z,102211.84
2018-05-18T19:54:47.902Z,102217.31
2018-05-18T19:57:49.968Z,102220.00
2018-05-18T20:00:52.045Z,102220.09
2018-05-18T20:03:54.056Z,102217.47
2018-05-18T20:06:56.216Z,102218.31
2018-05-18T20:09:58.473Z,102217.78
2018-05-18T20:13:00.619Z,102224.56
2018-05-18T20:16:03.735Z,102218.38
2018-05-18T20:19:06.000Z,102222.00
2018-05-18T20:22:09.163Z,102218.00
2018-05-18T20:25:12.704Z,102221.80
2018-05-18T20:28:14.922Z,102224.22
2018-05-18T20:31:17.019Z,102218.53
2018-05-18T20:34:19.123Z,102219.65
2018-05-18T20:37:21.177Z,102221.75
2018-05-18T20:40:23.238Z,102222.40
2018-05-18T20:43:25.577Z,102223.02
2018-05-18T20:46:27.748Z,102227.01
2018-05-18T20:49:29.888Z,102231.95
2018-05-18T20:52:32.138Z,102232.54
2018-05-18T20:55:36.308Z,102233.43
2018-05-18T20:58:38.466Z,102236.35
2018-05-18T21:01:40.499Z,102236.91
2018-05-18T21:04:42.579Z,102235.97
2018-05-18T21:07:44.725Z,102236.94
2018-05-18T21:10:46.769Z,102233.88
2018-05-18T21:13:48.892Z,102237.90
2018-05-18T21:16:51.926Z,102236.08
2018-05-18T21:19:54.017Z,102242.45
2018-05-18T21:22:56.065Z,102248.51
2018-05-18T21:26:00.085Z,102250.54
2018-05-18T21:29:02.226Z,102252.35
2018-05-18T21:32:05.043Z,102257.03
2018-05-18T21:35:07.134Z,102252.22
2018-05-18T21:38:09.171Z,102259.98
2018-05-18T21:41:11.263Z,102261.87
2018-05-18T21:44:13.292Z,102266.73
2018-05-18T21:47:16.239Z,102269.63
2018-05-18T21:50:18.380Z,102279.19
2018-05-18T21:53:20.362Z,102278.36
2018-05-18T21:56:22.428Z,102281.04
2018-05-18T21:59:24.490Z,102283.21
2018-05-18T22:02:26.545Z,102283.91
2018-05-18T22:05:28.517Z,102287.53
2018-05-18T22:08:30.582Z,102287.18
2018-05-18T22:11:32.661Z,102294.57
2018-05-18T22:14:34.616Z,102285.51
2018-05-18T22:17:36.655Z,102290.94
2018-05-18T22:20:38.646Z,102291.97
2018-05-18T22:23:40.743Z,102288.83
2018-05-18T22:26:42.802Z,102287.82
2018-05-18T22:29:45.705Z,102290.10
2018-05-18T22:32:47.880Z,102279.81
2018-05-18T22:35:49.915Z,102288.90
2018-05-18T22:38:52.305Z,102287.51
2018-05-18T22:41:54.399Z,102288.16
2018-05-18T22:44:56.653Z,102286.53
2018-05-18T22:47:58.620Z,102287.62
2018-05-18T22:51:00.822Z,102290.09
2018-05-18T22:54:02.833Z,102287.92
2018-05-18T22:57:05.136Z,102287.10
2018-05-18T23:00:07.298Z,102292.41
2018-05-18T23:03:09.252Z,102298.66
2018-05-18T23:06:11.264Z,102297.18
2018-05-18T23:09:14.515Z,102298.62
2018-05-18T23:12:16.626Z,102298.77
2018-05-18T23:15:18.809Z,102303.98
2018-05-18T23:18:20.820Z,102299.93
2018-05-18T23:21:22.872Z,102297.58
2018-05-18T23:24:24.989Z,102298.66
2018-05-18T23:27:27.029Z,102299.45
2018-05-18T23:30:30.168Z,102300.06
2018-05-18T23:33:32.390Z,102309.17
2018-05-18T23:36:34.571Z,102304.87
2018-05-18T23:39:36.548Z,102307.08
2018-05-18T23:42:38.636Z,102295.42
2018-05-18T23:45:40.838Z,102304.14
2018-05-18T23:48:42.843Z,102305.05
2018-05-18T23:51:44.851Z,102305.58
2018-05-18T23:54:46.917Z,102301.17
2018-05-18T23:57:49.295Z,102299.72
